Time;durP1;ratioP1;P1;durP2;ratioP2;P2;SDS_P1;SDS_P2;PMS_P1;PMS_P2;Temp;Humidity;BMP_temperature;BMP_pressure;BME280_temperature;BME280_humidity;BME280_pressure;Samples;Min_cycle;Max_cycle;Signal;HPM_P1;HPM_P2
2022/02/07 00:01:18;;;;;;;0.40;0.40;;;4.80;1.00;;;;;;5029550;28;20435;-73
2022/02/07 00:03:52;;;;;;;0.50;0.50;;;4.80;1.00;;;;;;5027839;28;20419;-74
2022/02/07 00:06:18;;;;;;;0.70;0.70;;;4.80;1.00;;;;;;5026373;28;20464;-75
2022/02/07 00:08:58;;;;;;;0.50;0.50;;;4.80;1.00;;;;;;5023485;28;20470;-75
2022/02/07 00:11:29;;;;;;;0.40;0.40;;;4.80;1.00;;;;;;5019238;28;20209;-75
2022/02/07 00:13:59;;;;;;;0.40;0.40;;;4.80;1.00;;;;;;5020551;28;20870;-75
2022/02/07 00:16:24;;;;;;;1.47;0.60;;;4.80;1.00;;;;;;5026086;28;20506;-75
2022/02/07 00:18:59;;;;;;;0.50;0.50;;;4.80;1.00;;;;;;5029803;28;20456;-73
2022/02/07 00:21:28;;;;;;;0.77;0.77;;;4.80;1.00;;;;;;5031644;28;20186;-75
2022/02/07 00:23:58;;;;;;;0.47;0.47;;;4.90;1.00;;;;;;5031101;28;20422;-74
2022/02/07 00:26:29;;;;;;;0.50;0.50;;;5.00;1.00;;;;;;5021362;28;20543;-75
2022/02/07 00:28:58;;;;;;;3.53;1.20;;;5.00;1.00;;;;;;5025601;28;20429;-75
2022/02/07 00:31:29;;;;;;;0.60;0.60;;;5.00;1.00;;;;;;5009248;28;20462;-76
2022/02/07 00:33:55;;;;;;;0.63;0.63;;;4.90;1.00;;;;;;5048061;28;20763;-73
2022/02/07 00:36:21;;;;;;;0.40;0.40;;;;;;;;;;5044041;28;20429;-74
2022/02/07 00:38:50;;;;;;;0.80;0.80;;;5.00;1.00;;;;;;5040441;28;20430;-73
2022/02/07 00:41:23;;;;;;;0.70;0.63;;;4.90;1.00;;;;;;5037814;28;20418;-74
2022/02/07 00:43:56;;;;;;;0.40;0.30;;;4.90;1.00;;;;;;5055645;28;20421;-74
2022/02/07 00:46:33;;;;;;;0.67;0.60;;;4.90;1.00;;;;;;5045963;28;20476;-73
2022/02/07 00:48:59;;;;;;;0.83;0.60;;;4.90;1.00;;;;;;5044547;28;20602;-74
2022/02/07 00:51:25;;;;;;;3.90;0.90;;;4.90;1.00;;;;;;5050699;28;20935;-75
2022/02/07 00:53:51;;;;;;;0.90;0.70;;;4.90;1.00;;;;;;5042793;28;20653;-75
2022/02/07 00:56:17;;;;;;;1.13;0.63;;;4.90;1.00;;;;;;5051360;28;20171;-75
2022/02/07 00:58:42;;;;;;;0.50;0.50;;;4.80;1.00;;;;;;5034219;28;20790;-75
2022/02/07 01:01:08;;;;;;;4.63;0.87;;;4.80;1.00;;;;;;5048002;28;20452;-75
2022/02/07 01:03:34;;;;;;;4.33;0.57;;;4.80;1.00;;;;;;5042622;28;20434;-75
2022/02/07 01:06:00;;;;;;;1.53;1.00;;;4.80;1.00;;;;;;5038757;28;20250;-75
2022/02/07 01:08:39;;;;;;;1.57;0.70;;;4.80;1.00;;;;;;5035073;28;20433;-75
2022/02/07 01:11:31;;;;;;;1.90;0.80;;;4.70;1.00;;;;;;5039764;28;20512;-75
2022/02/07 01:55:41;;;;;;;0.70;0.50;;;3.50;1.00;;;;;;5036472;28;20195;-75
2022/02/07 01:58:04;;;;;;;0.55;0.55;;;3.50;1.00;;;;;;5049016;28;20687;-74
2022/02/07 02:00:38;;;;;;;0.70;0.50;;;3.50;1.00;;;;;;5046829;28;20184;-74
2022/02/07 02:03:03;;;;;;;1.43;0.60;;;3.50;1.00;;;;;;5054391;28;20259;-74
2022/02/07 02:05:39;;;;;;;1.50;0.50;;;3.50;1.00;;;;;;5044991;28;20494;-74
2022/02/07 02:08:12;;;;;;;0.50;0.50;;;3.50;1.00;;;;;;5053201;28;20183;-74
2022/02/07 02:10:44;;;;;;;0.70;0.50;;;3.50;1.00;;;;;;5042850;28;20242;-74
2022/02/07 02:13:16;;;;;;;1.27;0.63;;;3.50;1.00;;;;;;5051857;28;20505;-74
2022/02/07 02:15:54;;;;;;;0.30;0.30;;;3.40;1.00;;;;;;5054984;28;20239;-75
2022/02/07 02:35:38;;;;;;;1.73;0.60;;;3.40;1.00;;;;;;5042283;28;20222;-73
2022/02/07 02:38:08;;;;;;;0.65;0.40;;;3.40;1.00;;;;;;5048211;28;20188;-73
2022/02/07 02:46:07;;;;;;;3.85;0.70;;;3.40;1.00;;;;;;5047804;28;20194;-74
2022/02/07 02:48:35;;;;;;;0.50;0.50;;;3.50;1.00;;;;;;5055058;28;20634;-74
2022/02/07 02:51:07;;;;;;;0.63;0.63;;;3.50;1.00;;;;;;5042996;28;20282;-74
2022/02/07 02:53:33;;;;;;;3.10;0.82;;;3.60;1.00;;;;;;5037709;28;20203;-73
2022/02/07 02:55:59;;;;;;;0.87;0.50;;;;;;;;;;5048615;28;20160;-74
2022/02/07 02:58:25;;;;;;;0.60;0.50;;;3.60;1.00;;;;;;5050649;28;20422;-74
2022/02/07 03:00:52;;;;;;;1.00;0.60;;;3.60;1.00;;;;;;5053191;28;20191;-73
2022/02/07 03:03:18;;;;;;;0.88;0.85;;;3.60;1.00;;;;;;5042089;28;20905;-74
2022/02/07 03:05:46;;;;;;;2.40;0.70;;;3.50;1.00;;;;;;5054881;28;20186;-74
2022/02/07 03:08:13;;;;;;;0.60;0.60;;;3.50;1.00;;;;;;5037017;28;20474;-74
2022/02/07 03:11:02;;;;;;;7.18;0.90;;;3.60;1.00;;;;;;5048398;28;20195;-74
2022/02/07 03:18:41;;;;;;;0.75;0.50;;;3.50;1.00;;;;;;5054617;28;20252;-74
2022/02/07 03:21:11;;;;;;;0.70;0.70;;;3.50;1.00;;;;;;5035114;28;20183;-74
2022/02/07 03:23:41;;;;;;;0.70;0.57;;;3.50;1.00;;;;;;5048311;28;20757;-74
2022/02/07 03:26:07;;;;;;;0.60;0.60;;;3.70;1.00;;;;;;5040257;28;20206;-74
2022/02/07 03:28:32;;;;;;;2.10;0.80;;;3.60;1.00;;;;;;5050130;28;20207;-75
2022/02/07 03:30:58;;;;;;;4.27;0.70;;;3.70;1.00;;;;;;5041948;28;20231;-74
2022/02/07 03:33:24;;;;;;;1.05;0.80;;;3.70;1.00;;;;;;5053894;28;20568;-75
2022/02/07 03:35:50;;;;;;;1.43;0.83;;;3.60;1.00;;;;;;5038788;28;20204;-74
2022/02/07 03:38:16;;;;;;;13.45;1.48;;;3.60;1.00;;;;;;5039415;28;20192;-74
2022/02/07 03:40:47;;;;;;;0.50;0.50;;;3.60;1.00;;;;;;5048013;28;21888;-74
2022/02/07 03:43:17;;;;;;;1.40;0.82;;;3.70;1.00;;;;;;5039045;28;20204;-74
2022/02/07 03:45:42;;;;;;;5.45;0.82;;;3.70;1.00;;;;;;5053930;28;20175;-74
2022/02/07 03:48:11;;;;;;;6.27;1.10;;;3.70;1.00;;;;;;5040571;28;20177;-74
2022/02/07 03:50:37;;;;;;;17.65;0.57;;;3.60;1.00;;;;;;5045364;28;20258;-74
2022/02/07 03:53:03;;;;;;;3.70;1.00;;;3.60;1.00;;;;;;5049728;28;20176;-74
2022/02/07 03:55:29;;;;;;;5.90;0.97;;;3.70;1.00;;;;;;5048161;28;20558;-74
2022/02/07 03:57:55;;;;;;;13.50;1.08;;;3.70;1.00;;;;;;5039358;28;20464;-74
2022/02/07 04:00:22;;;;;;;2.00;0.80;;;3.60;1.00;;;;;;5042178;28;20183;-74
2022/02/07 04:02:54;;;;;;;6.75;1.00;;;3.60;1.00;;;;;;5040210;28;20172;-74
2022/02/07 04:05:41;;;;;;;6.18;0.90;;;3.60;1.00;;;;;;5044313;28;20175;-74
2022/02/07 04:08:09;;;;;;;0.70;0.50;;;3.60;1.00;;;;;;5047285;28;20263;-75
2022/02/07 04:10:44;;;;;;;2.25;1.02;;;3.60;1.00;;;;;;5034502;28;20223;-75
2022/02/07 04:13:12;;;;;;;8.25;1.27;;;3.60;1.00;;;;;;5041364;28;20205;-75
2022/02/07 04:15:38;;;;;;;0.57;0.57;;;3.60;1.00;;;;;;5040253;28;20190;-74
2022/02/07 04:18:09;;;;;;;2.80;0.70;;;3.60;1.00;;;;;;5034345;28;20161;-75
2022/02/07 04:20:41;;;;;;;0.70;0.70;;;3.60;1.00;;;;;;5048989;28;20897;-76
2022/02/07 04:23:06;;;;;;;0.70;0.70;;;3.60;1.00;;;;;;5054028;28;20179;-74
2022/02/07 04:25:35;;;;;;;2.60;0.73;;;3.60;1.00;;;;;;5040180;28;20168;-74
2022/02/07 04:28:01;;;;;;;3.25;1.15;;;3.60;1.00;;;;;;5042262;28;20172;-74
2022/02/07 04:30:29;;;;;;;0.70;0.70;;;3.60;1.00;;;;;;5048862;28;20664;-74
2022/02/07 04:32:59;;;;;;;7.13;1.80;;;3.60;1.00;;;;;;5032876;28;20777;-74
2022/02/07 04:35:25;;;;;;;1.08;0.80;;;3.60;1.00;;;;;;5037780;28;20209;-74
2022/02/07 04:37:51;;;;;;;2.20;0.60;;;;;;;;;;5053501;28;20184;-75
2022/02/07 04:40:17;;;;;;;3.03;1.08;;;3.50;1.00;;;;;;5045729;28;20435;-75
2022/02/07 04:42:53;;;;;;;1.00;0.95;;;3.50;1.00;;;;;;5040437;28;20218;-75
2022/02/07 05:01:48;;;;;;;1.85;0.85;;;3.60;1.00;;;;;;5021974;28;20180;-74
2022/02/07 05:04:18;;;;;;;0.75;0.75;;;3.60;1.00;;;;;;5010989;28;20225;-74
2022/02/07 05:15:07;;;;;;;2.80;0.95;;;3.60;1.00;;;;;;5026359;28;20216;-75
2022/02/07 05:17:37;;;;;;;0.60;0.60;;;;;;;;;;5015203;28;20268;-75
2022/02/07 05:20:05;;;;;;;0.85;0.85;;;3.70;1.00;;;;;;5025446;28;20173;-75
2022/02/07 05:22:31;;;;;;;3.92;1.00;;;3.70;1.00;;;;;;5015374;28;20272;-74
2022/02/07 05:24:57;;;;;;;2.25;0.85;;;3.70;1.00;;;;;;5024157;28;20189;-73
2022/02/07 05:27:23;;;;;;;1.43;0.60;;;3.70;1.00;;;;;;5021633;28;20214;-73
2022/02/07 05:29:49;;;;;;;0.60;0.60;;;3.80;1.00;;;;;;5040515;28;20187;-73
2022/02/07 05:32:16;;;;;;;1.23;0.73;;;3.80;1.00;;;;;;5054415;28;20283;-73
2022/02/07 05:34:42;;;;;;;0.90;0.45;;;3.80;1.00;;;;;;5046090;28;20172;-73
2022/02/07 05:37:11;;;;;;;7.35;0.60;;;3.70;1.00;;;;;;5043973;28;20200;-73
2022/02/07 05:39:38;;;;;;;1.90;1.02;;;3.70;1.00;;;;;;5046680;28;20267;-73
2022/02/07 05:42:06;;;;;;;1.85;0.63;;;3.70;1.00;;;;;;5043549;28;20172;-73
2022/02/07 05:44:38;;;;;;;1.27;0.90;;;3.80;1.00;;;;;;5056155;28;20216;-73
2022/02/07 05:47:05;;;;;;;0.52;0.52;;;3.70;1.00;;;;;;5048002;28;20186;-73
2022/02/07 05:49:31;;;;;;;2.22;1.15;;;;;;;;;;5045063;28;20512;-73
2022/02/07 05:51:57;;;;;;;0.75;0.65;;;3.70;1.00;;;;;;5043171;28;20719;-74
2022/02/07 05:54:23;;;;;;;0.77;0.70;;;3.70;1.00;;;;;;5052657;28;20164;-75
2022/02/07 05:56:50;;;;;;;0.93;0.80;;;;;;;;;;5037796;28;20529;-75
2022/02/07 05:59:15;;;;;;;3.42;1.38;;;3.70;1.00;;;;;;5049817;28;20623;-75
2022/02/07 06:01:42;;;;;;;2.60;1.30;;;3.70;1.00;;;;;;5039117;28;20268;-75
2022/02/07 06:04:07;;;;;;;2.33;0.82;;;3.80;1.00;;;;;;5049651;28;20506;-75
2022/02/07 06:06:47;;;;;;;1.17;0.70;;;3.80;1.00;;;;;;5046531;28;20183;-75
2022/02/07 06:09:17;;;;;;;7.07;1.25;;;3.70;1.00;;;;;;5049992;28;20179;-75
2022/02/07 06:11:42;;;;;;;3.97;0.88;;;3.70;1.00;;;;;;5039378;28;20200;-75
2022/02/07 06:14:11;;;;;;;1.57;0.60;;;3.80;1.00;;;;;;5046680;28;20173;-74
2022/02/07 06:16:41;;;;;;;3.28;1.27;;;3.80;1.00;;;;;;5036169;28;20482;-75
2022/02/07 06:19:11;;;;;;;2.92;0.80;;;3.80;1.00;;;;;;5050727;28;20176;-76
2022/02/07 06:21:55;;;;;;;3.00;1.25;;;3.70;1.00;;;;;;5047165;28;20274;-75
2022/02/07 06:24:23;;;;;;;1.45;1.00;;;3.80;1.00;;;;;;5042634;28;20672;-73
2022/02/07 06:26:49;;;;;;;0.50;0.50;;;;;;;;;;5043334;28;20186;-73
2022/02/07 06:29:17;;;;;;;3.60;1.53;;;3.80;1.00;;;;;;5049632;28;20267;-74
2022/02/07 06:31:42;;;;;;;1.55;1.42;;;3.80;1.00;;;;;;5040459;28;20465;-73
2022/02/07 06:34:08;;;;;;;2.20;0.80;;;3.80;1.00;;;;;;5044034;28;20635;-73
2022/02/07 06:36:34;;;;;;;6.80;1.07;;;3.80;1.00;;;;;;5037528;28;20176;-73
2022/02/07 06:39:00;;;;;;;8.00;0.90;;;;;;;;;;5055057;28;20521;-74
2022/02/07 06:41:27;;;;;;;0.93;0.93;;;3.80;1.00;;;;;;5051495;28;20909;-73
2022/02/07 06:43:53;;;;;;;0.70;0.70;;;3.80;1.00;;;;;;5074607;28;20187;-74
2022/02/07 06:46:19;;;;;;;7.40;1.20;;;;;;;;;;5059735;28;20179;-74
2022/02/07 06:48:47;;;;;;;1.03;0.83;;;3.80;1.00;;;;;;5054632;28;20619;-73
2022/02/07 06:51:12;;;;;;;6.30;1.13;;;3.80;1.00;;;;;;5048158;28;20816;-73
2022/02/07 06:53:39;;;;;;;5.13;1.10;;;3.80;1.00;;;;;;5047845;28;20195;-73
2022/02/07 06:56:05;;;;;;;8.95;0.95;;;3.80;1.00;;;;;;5039304;28;20258;-73
2022/02/07 06:58:31;;;;;;;2.08;0.98;;;;;;;;;;5040144;28;20694;-75
2022/02/07 07:00:59;;;;;;;4.90;1.33;;;3.80;1.00;;;;;;5053418;28;20510;-72
2022/02/07 07:03:33;;;;;;;1.00;0.90;;;3.90;1.00;;;;;;5042845;28;20517;-73
2022/02/07 07:05:59;;;;;;;2.15;1.33;;;4.00;1.00;;;;;;5054935;28;20404;-74
2022/02/07 07:08:35;;;;;;;1.37;1.27;;;4.10;1.00;;;;;;5054590;28;20171;-74
2022/02/07 07:11:06;;;;;;;0.83;0.83;;;4.20;1.00;;;;;;5051435;28;20465;-75
2022/02/07 07:13:41;;;;;;;3.53;1.40;;;4.20;1.00;;;;;;5044172;28;20407;-75
2022/02/07 07:18:53;;;;;;;1.37;1.13;;;4.40;1.00;;;;;;5048817;28;20497;-75
2022/02/07 07:21:26;;;;;;;8.33;0.90;;;4.40;1.00;;;;;;5058395;28;20471;-75
2022/02/07 07:23:56;;;;;;;5.00;1.50;;;4.50;1.00;;;;;;5050681;28;20488;-73
2022/02/07 07:26:24;;;;;;;4.70;1.30;;;4.50;1.00;;;;;;5051440;28;20425;-74
2022/02/07 07:28:51;;;;;;;2.10;0.57;;;4.60;1.00;;;;;;5051432;28;20468;-73
2022/02/07 07:31:18;;;;;;;7.60;1.60;;;4.60;1.00;;;;;;5041947;28;20535;-73
2022/02/07 07:33:49;;;;;;;2.93;1.17;;;4.60;1.00;;;;;;5051669;28;20967;-75
2022/02/07 07:36:15;;;;;;;13.53;1.87;;;4.60;1.00;;;;;;5060486;28;20436;-73
2022/02/07 07:38:41;;;;;;;6.63;1.07;;;;;;;;;;5047448;28;20447;-73
2022/02/07 07:41:07;;;;;;;6.13;1.53;;;4.60;1.00;;;;;;5032549;28;20191;-73
2022/02/07 07:43:33;;;;;;;5.53;0.83;;;4.70;1.00;;;;;;5042048;28;20449;-73
2022/02/07 07:46:04;;;;;;;4.87;0.93;;;4.70;1.00;;;;;;5051933;28;20454;-73
2022/02/07 07:48:36;;;;;;;2.80;1.20;;;4.70;1.00;;;;;;5050332;28;20846;-73
2022/02/07 07:51:07;;;;;;;4.30;1.27;;;4.60;1.00;;;;;;5038963;28;20999;-73
2022/02/07 08:01:50;;;;;;;3.73;0.87;;;4.90;1.00;;;;;;5049456;28;20997;-73
2022/02/07 08:04:18;;;;;;;6.13;1.47;;;5.00;1.00;;;;;;5053218;28;21055;-73
2022/02/07 08:06:57;;;;;;;0.83;0.70;;;5.00;1.00;;;;;;5044453;28;20426;-73
2022/02/07 08:09:44;;;;;;;3.57;1.37;;;5.10;1.00;;;;;;5038362;28;20426;-73
2022/02/07 08:12:17;;;;;;;6.43;1.70;;;5.10;1.00;;;;;;5040709;28;20813;-75
2022/02/07 08:14:43;;;;;;;1.07;0.63;;;5.20;1.00;;;;;;5043775;28;20456;-75
2022/02/07 08:17:09;;;;;;;2.40;0.80;;;;;;;;;;5039037;28;20458;-75
2022/02/07 08:19:37;;;;;;;2.83;1.00;;;5.40;1.00;;;;;;5040598;28;20180;-75
2022/02/07 08:22:03;;;;;;;2.77;1.10;;;5.40;1.00;;;;;;5043854;28;20901;-75
2022/02/07 08:24:29;;;;;;;2.10;0.90;;;5.40;1.00;;;;;;5048702;28;20422;-73
2022/02/07 08:26:56;;;;;;;3.40;0.70;;;5.40;1.00;;;;;;5042923;28;20414;-74
2022/02/07 08:29:21;;;;;;;2.40;0.90;;;5.50;1.00;;;;;;5045903;28;20418;-74
2022/02/07 08:31:47;;;;;;;5.30;1.30;;;5.50;1.00;;;;;;5033273;28;20965;-73
2022/02/07 08:34:13;;;;;;;0.77;0.73;;;;;;;;;;5041939;28;20617;-73
2022/02/07 08:36:39;;;;;;;2.23;0.90;;;5.70;1.00;;;;;;5047776;28;20428;-74
2022/02/07 08:39:06;;;;;;;1.83;1.10;;;5.70;1.00;;;;;;5045514;28;20445;-75
2022/02/07 08:41:32;;;;;;;3.20;1.17;;;5.80;1.00;;;;;;5037136;28;20480;-75
2022/02/07 08:43:57;;;;;;;3.30;0.90;;;5.90;1.00;;;;;;5038922;28;20422;-75
2022/02/07 08:46:23;;;;;;;2.10;1.00;;;5.90;1.00;;;;;;5045957;28;20262;-75
2022/02/07 08:48:49;;;;;;;6.00;0.90;;;6.00;1.00;;;;;;5044268;28;20956;-75
2022/02/07 08:51:16;;;;;;;2.80;1.23;;;6.00;1.00;;;;;;5054217;28;20692;-75
2022/02/07 08:53:44;;;;;;;4.13;0.80;;;6.00;1.00;;;;;;5041809;28;20426;-75
2022/02/07 08:56:11;;;;;;;5.13;1.20;;;6.10;1.00;;;;;;5052035;28;20452;-75
2022/02/07 08:58:41;;;;;;;3.87;1.30;;;6.10;1.00;;;;;;5038255;28;20423;-75
2022/02/07 09:01:28;;;;;;;1.40;0.97;;;6.10;1.00;;;;;;5043168;28;20449;-75
2022/02/07 09:04:39;;;;;;;3.20;1.00;;;6.10;1.00;;;;;;5055473;28;20452;-75
2022/02/07 09:07:02;;;;;;;0.60;0.60;;;6.10;1.00;;;;;;5038602;28;20501;-75
2022/02/07 09:09:27;;;;;;;1.87;1.40;;;6.00;1.00;;;;;;5054386;28;20433;-74
2022/02/07 09:11:53;;;;;;;2.70;1.20;;;;;;;;;;5056087;28;20452;-73
2022/02/07 09:14:22;;;;;;;3.03;1.43;;;6.10;1.00;;;;;;5043669;28;20183;-74
2022/02/07 09:16:48;;;;;;;9.73;1.10;;;;;;;;;;5044869;28;20419;-73
2022/02/07 09:19:19;;;;;;;1.90;0.80;;;6.20;1.00;;;;;;5039220;28;20437;-74
2022/02/07 09:21:46;;;;;;;2.20;1.07;;;6.20;1.00;;;;;;5050147;28;20549;-73
2022/02/07 09:24:12;;;;;;;4.73;0.70;;;6.20;1.00;;;;;;5046064;28;20460;-73
2022/02/07 09:26:38;;;;;;;1.17;0.60;;;6.20;1.00;;;;;;5037179;28;20415;-73
2022/02/07 09:29:04;;;;;;;0.80;0.80;;;6.30;1.00;;;;;;5040910;28;20935;-73
2022/02/07 09:31:30;;;;;;;3.97;1.47;;;6.30;1.00;;;;;;5044110;28;20203;-73
2022/02/07 09:33:56;;;;;;;1.10;0.87;;;;;;;;;;5052333;28;20707;-74
2022/02/07 09:36:23;;;;;;;8.40;0.60;;;6.60;1.00;;;;;;5037625;28;20430;-73
2022/02/07 09:38:50;;;;;;;0.80;0.80;;;6.60;1.00;;;;;;5041317;28;20876;-74
2022/02/07 09:41:20;;;;;;;2.60;1.23;;;6.60;1.00;;;;;;5040412;28;20462;-76
2022/02/07 09:43:49;;;;;;;3.27;1.00;;;6.80;1.00;;;;;;5044527;28;20454;-77
2022/02/07 09:46:34;;;;;;;5.30;1.13;;;6.70;1.00;;;;;;5048130;28;20410;-77
2022/02/07 09:49:00;;;;;;;6.00;1.00;;;6.80;1.00;;;;;;5045013;28;20413;-77
2022/02/07 09:51:26;;;;;;;5.50;1.40;;;6.90;1.00;;;;;;5038946;28;20458;-77
2022/02/07 09:53:55;;;;;;;2.50;0.70;;;7.00;1.00;;;;;;5035580;28;20414;-74
2022/02/07 09:56:22;;;;;;;9.03;1.37;;;;;;;;;;5042558;28;20215;-75
2022/02/07 09:58:54;;;;;;;0.90;0.80;;;7.20;1.00;;;;;;5043606;28;20480;-75
2022/02/07 10:01:27;;;;;;;19.30;1.60;;;7.40;1.00;;;;;;5047829;28;20422;-74
2022/02/07 10:03:59;;;;;;;2.83;1.13;;;7.50;1.00;;;;;;5053373;28;20414;-73
2022/02/07 10:06:34;;;;;;;5.10;1.33;;;7.40;1.00;;;;;;5035865;28;20481;-73
2022/02/07 10:19:43;;;;;;;2.00;1.10;;;7.30;1.00;;;;;;5046465;28;20421;-74
2022/02/07 10:43:44;;;;;;;2.83;1.17;;;8.10;1.00;;;;;;5054556;28;20180;-76
2022/02/07 10:46:16;;;;;;;3.90;1.23;;;8.10;1.00;;;;;;5042409;28;20517;-76
2022/02/07 10:48:51;;;;;;;1.70;0.93;;;8.10;1.00;;;;;;5034654;28;20423;-76
2022/02/07 10:51:31;;;;;;;1.20;1.10;;;8.10;1.00;;;;;;5034459;28;20810;-77
2022/02/07 10:54:06;;;;;;;3.00;1.37;;;8.30;1.00;;;;;;5034689;28;20423;-77
2022/02/07 10:56:38;;;;;;;8.33;1.20;;;8.30;1.00;;;;;;5042706;28;20410;-78
2022/02/07 10:59:10;;;;;;;2.17;1.63;;;8.30;1.00;;;;;;5034644;28;20422;-77
2022/02/07 11:07:00;;;;;;;3.40;0.93;;;8.40;1.00;;;;;;5034387;28;20422;-77
2022/02/07 11:09:43;;;;;;;5.53;1.20;;;8.50;1.00;;;;;;5034050;28;20757;-77
2022/02/07 11:23:17;;;;;;;6.60;1.70;;;8.30;1.00;;;;;;5031599;28;20426;-73
2022/02/07 11:28:21;;;;;;;5.33;1.00;;;8.30;1.00;;;;;;5030197;28;20415;-75
2022/02/07 11:30:53;;;;;;;3.63;1.20;;;8.30;1.00;;;;;;5009262;28;20559;-75
2022/02/07 11:33:34;;;;;;;0.50;0.50;;;8.30;1.00;;;;;;5011761;28;20424;-79
2022/02/07 11:36:00;;;;;;;2.33;0.90;;;8.30;1.00;;;;;;5003238;28;20496;-80
2022/02/07 11:38:26;;;;;;;1.57;0.90;;;8.30;1.00;;;;;;5031491;28;20523;-81
2022/02/07 11:40:55;;;;;;;0.77;0.73;;;8.40;1.00;;;;;;5031725;28;20825;-71
2022/02/07 11:43:23;;;;;;;5.27;1.00;;;8.30;1.00;;;;;;5030962;28;20431;-77
2022/02/07 11:45:55;;;;;;;2.47;0.83;;;8.40;1.00;;;;;;5021745;28;20923;-76
2022/02/07 11:48:31;;;;;;;2.30;1.17;;;8.40;1.00;;;;;;5015465;28;20438;-77
2022/02/07 11:50:59;;;;;;;2.63;1.50;;;8.50;1.00;;;;;;5011105;28;20463;-76
2022/02/07 11:53:47;;;;;;;4.57;1.77;;;8.50;1.00;;;;;;5011070;28;20424;-78
2022/02/07 12:01:52;;;;;;;3.60;1.60;;;8.40;1.00;;;;;;5042579;28;20437;-76
2022/02/07 12:04:31;;;;;;;2.83;1.43;;;8.60;1.00;;;;;;5039111;28;20918;-76
2022/02/07 12:07:32;;;;;;;3.47;0.90;;;8.70;1.00;;;;;;5047235;28;20954;-77
2022/02/07 12:10:03;;;;;;;6.50;1.97;;;8.90;1.00;;;;;;5019348;28;20427;-77
2022/02/07 12:12:47;;;;;;;2.00;1.27;;;9.00;1.00;;;;;;5018420;28;20474;-76
2022/02/07 12:15:13;;;;;;;2.90;1.23;;;9.20;1.00;;;;;;5019854;28;20422;-76
2022/02/07 12:17:44;;;;;;;4.23;1.37;;;9.20;1.00;;;;;;5017407;28;20431;-74
2022/02/07 12:20:14;;;;;;;5.00;1.50;;;9.00;1.00;;;;;;5028336;28;20929;-76
2022/02/07 12:23:04;;;;;;;4.10;1.07;;;8.70;1.00;;;;;;5014802;28;20594;-77
2022/02/07 12:25:47;;;;;;;4.83;1.60;;;8.70;1.00;;;;;;5012722;28;20462;-75
2022/02/07 12:31:30;;;;;;;3.40;1.07;;;8.80;1.00;;;;;;4964899;28;20868;-72
2022/02/07 12:34:01;;;;;;;4.10;1.90;;;8.60;1.00;;;;;;4958128;28;20450;-74
2022/02/07 12:36:29;;;;;;;2.80;1.73;;;8.40;1.00;;;;;;4955236;28;20437;-74
2022/02/07 12:38:57;;;;;;;7.80;1.63;;;8.30;1.00;;;;;;4965766;28;20501;-76
2022/02/07 12:41:24;;;;;;;2.73;1.20;;;8.10;1.00;;;;;;4951527;28;20434;-74
2022/02/07 12:43:51;;;;;;;4.07;1.20;;;8.10;1.00;;;;;;4970428;28;20441;-74
2022/02/07 12:46:21;;;;;;;5.90;1.60;;;8.30;1.00;;;;;;4969683;28;20892;-74
2022/02/07 12:48:58;;;;;;;4.17;1.37;;;8.50;1.00;;;;;;4954227;28;20471;-75
2022/02/07 12:51:42;;;;;;;5.53;1.67;;;8.50;1.00;;;;;;4951851;28;20541;-77
2022/02/07 12:54:12;;;;;;;5.07;1.23;;;8.70;1.00;;;;;;4958301;28;20441;-77
2022/02/07 12:56:39;;;;;;;2.47;0.70;;;8.70;1.00;;;;;;4963527;28;20484;-75
2022/02/07 12:59:05;;;;;;;5.03;1.37;;;8.60;1.00;;;;;;4965127;28;20430;-74
2022/02/07 13:01:37;;;;;;;3.07;1.30;;;8.70;1.00;;;;;;4966893;28;20442;-75
2022/02/07 13:04:08;;;;;;;2.83;1.10;;;8.50;1.00;;;;;;4958997;28;20524;-74
2022/02/07 13:06:43;;;;;;;2.73;1.30;;;8.40;1.00;;;;;;4959648;28;20449;-74
2022/02/07 13:09:21;;;;;;;10.83;1.27;;;8.40;1.00;;;;;;5028341;28;20430;-73
2022/02/07 13:11:49;;;;;;;2.97;1.23;;;8.50;1.00;;;;;;5032582;28;20489;-75
2022/02/07 13:14:17;;;;;;;2.10;1.00;;;8.50;1.00;;;;;;5032248;28;20415;-75
2022/02/07 13:16:46;;;;;;;3.73;1.13;;;8.70;1.00;;;;;;5042583;28;20449;-75
2022/02/07 13:19:14;;;;;;;2.57;0.83;;;8.60;1.00;;;;;;5048135;28;20462;-75
2022/02/07 13:21:43;;;;;;;5.70;1.00;;;8.60;1.00;;;;;;5032299;28;20418;-75
2022/02/07 13:24:12;;;;;;;5.53;0.80;;;9.30;1.00;;;;;;5034601;28;20437;-75
2022/02/07 13:26:38;;;;;;;1.90;1.00;;;8.60;1.00;;;;;;5038380;28;20485;-73
2022/02/07 13:29:04;;;;;;;5.33;1.27;;;9.10;1.00;;;;;;5044437;28;20779;-74
2022/02/07 13:31:31;;;;;;;3.20;1.40;;;8.80;1.00;;;;;;5058882;28;20986;-75
2022/02/07 13:34:00;;;;;;;4.27;1.33;;;8.80;1.00;;;;;;5038891;28;20422;-75
2022/02/07 13:36:45;;;;;;;0.77;0.77;;;8.80;1.00;;;;;;5050380;28;20438;-73
2022/02/07 13:39:11;;;;;;;3.03;1.30;;;8.90;1.00;;;;;;5048444;28;20963;-73
2022/02/07 13:41:39;;;;;;;4.03;1.20;;;;;;;;;;5051423;28;20429;-76
2022/02/07 13:44:07;;;;;;;3.00;1.30;;;9.10;1.00;;;;;;5062572;28;20405;-77
2022/02/07 13:46:33;;;;;;;7.40;1.30;;;9.30;1.00;;;;;;5051754;28;20514;-76
2022/02/07 13:49:02;;;;;;;0.70;0.70;;;9.50;1.00;;;;;;5035792;28;20502;-76
2022/02/07 13:51:29;;;;;;;2.60;1.10;;;9.10;1.00;;;;;;5040327;28;20210;-76
2022/02/07 13:53:57;;;;;;;5.90;1.00;;;9.00;1.00;;;;;;5055275;28;20434;-76
2022/02/07 13:56:36;;;;;;;3.83;1.60;;;8.90;1.00;;;;;;5051040;28;20754;-73
2022/02/07 13:59:17;;;;;;;2.40;1.00;;;8.90;1.00;;;;;;5054293;28;20479;-72
2022/02/07 14:01:46;;;;;;;5.40;1.20;;;8.80;1.00;;;;;;5050495;28;20947;-71
2022/02/07 14:04:16;;;;;;;1.60;1.23;;;8.80;1.00;;;;;;5054976;28;20500;-72
2022/02/07 14:06:48;;;;;;;5.90;1.67;;;8.60;1.00;;;;;;5045267;28;20458;-72
2022/02/07 14:09:14;;;;;;;4.10;1.30;;;8.60;1.00;;;;;;5047375;28;20426;-72
2022/02/07 14:11:42;;;;;;;9.17;1.87;;;8.50;1.00;;;;;;5042627;28;20541;-75
2022/02/07 14:14:08;;;;;;;5.00;1.63;;;8.40;1.00;;;;;;5043240;28;20510;-76
2022/02/07 14:16:35;;;;;;;3.33;1.10;;;8.30;1.00;;;;;;5051642;28;20501;-76
2022/02/07 14:19:02;;;;;;;3.17;1.10;;;8.20;1.00;;;;;;5054799;28;20176;-76
2022/02/07 14:21:31;;;;;;;6.83;1.27;;;8.30;1.00;;;;;;5052209;28;20426;-76
2022/02/07 14:23:59;;;;;;;4.80;1.00;;;8.20;1.00;;;;;;5054303;28;20461;-76
2022/02/07 14:26:36;;;;;;;2.77;0.90;;;8.20;1.00;;;;;;5053602;28;20426;-76
2022/02/07 14:29:04;;;;;;;2.57;1.03;;;8.30;1.00;;;;;;5049299;28;20980;-72
2022/02/07 14:31:30;;;;;;;3.37;1.23;;;8.40;1.00;;;;;;5042391;28;20454;-72
2022/02/07 14:33:56;;;;;;;1.00;0.87;;;8.80;1.00;;;;;;5034762;28;20430;-73
2022/02/07 14:36:23;;;;;;;1.47;0.90;;;9.20;1.00;;;;;;5041954;28;20435;-73
2022/02/07 14:38:48;;;;;;;1.40;0.90;;;9.10;1.00;;;;;;5045062;28;20450;-73
2022/02/07 14:41:18;;;;;;;3.27;1.03;;;8.40;1.00;;;;;;5038827;28;20431;-72
2022/02/07 14:43:48;;;;;;;3.67;0.90;;;8.40;1.00;;;;;;5045196;28;20643;-76
2022/02/07 14:46:22;;;;;;;1.80;1.13;;;8.40;1.00;;;;;;5040326;28;20790;-76
2022/02/07 14:48:47;;;;;;;3.67;1.47;;;8.40;1.00;;;;;;5035039;28;20744;-76
2022/02/07 14:51:13;;;;;;;1.47;0.90;;;9.70;1.00;;;;;;5038388;28;20470;-76
2022/02/07 14:53:41;;;;;;;7.13;1.43;;;9.30;1.00;;;;;;5037143;28;20242;-77
2022/02/07 14:56:08;;;;;;;4.53;1.20;;;8.40;1.00;;;;;;5053448;28;20164;-76
2022/02/07 14:58:34;;;;;;;10.43;1.70;;;8.40;1.00;;;;;;5038715;28;20427;-72
2022/02/07 15:01:00;;;;;;;1.80;0.90;;;9.50;1.00;;;;;;5046170;28;20824;-72
2022/02/07 15:03:26;;;;;;;1.57;1.00;;;8.70;1.00;;;;;;5051124;28;20509;-72
2022/02/07 15:05:57;;;;;;;2.80;0.80;;;8.50;1.00;;;;;;5039976;28;20509;-72
2022/02/07 15:08:24;;;;;;;12.83;1.20;;;8.40;1.00;;;;;;5041146;28;20434;-72
2022/02/07 15:10:50;;;;;;;2.70;1.30;;;8.30;1.00;;;;;;5043265;28;20430;-72
2022/02/07 15:13:16;;;;;;;3.03;1.33;;;8.30;1.00;;;;;;5041939;28;20423;-75
2022/02/07 15:15:42;;;;;;;2.33;1.43;;;;;;;;;;5039211;28;20465;-76
2022/02/07 15:18:08;;;;;;;1.03;0.60;;;8.20;1.00;;;;;;5053645;28;20182;-76
2022/02/07 15:20:39;;;;;;;2.30;0.70;;;8.10;1.00;;;;;;5053172;28;20426;-76
2022/02/07 15:23:09;;;;;;;8.33;0.90;;;8.10;1.00;;;;;;5044047;28;20691;-76
2022/02/07 15:25:35;;;;;;;2.77;0.97;;;8.10;1.00;;;;;;5037835;28;20422;-77
2022/02/07 15:28:06;;;;;;;5.40;1.70;;;8.10;1.00;;;;;;5053940;28;20516;-77
2022/02/07 15:30:40;;;;;;;3.33;1.00;;;8.10;1.00;;;;;;5043845;28;20433;-76
2022/02/07 15:33:09;;;;;;;0.50;0.50;;;8.10;1.00;;;;;;5037098;28;20414;-75
2022/02/07 15:35:35;;;;;;;2.70;0.87;;;8.10;1.00;;;;;;5053010;28;20422;-78
2022/02/07 15:38:01;;;;;;;3.37;0.80;;;8.00;1.00;;;;;;5042636;28;20437;-76
2022/02/07 15:40:26;;;;;;;4.27;1.33;;;8.00;1.00;;;;;;5047086;28;20423;-76
2022/02/07 15:42:55;;;;;;;2.60;1.30;;;8.00;1.00;;;;;;5043777;28;20191;-75
2022/02/07 15:45:22;;;;;;;8.80;1.00;;;7.90;1.00;;;;;;5044282;28;20650;-75
2022/02/07 15:47:49;;;;;;;2.93;0.97;;;7.80;1.00;;;;;;5048756;28;20466;-75
2022/02/07 15:50:15;;;;;;;6.33;1.37;;;7.80;1.00;;;;;;5038407;28;20422;-75
2022/02/07 15:52:42;;;;;;;1.93;0.87;;;7.60;1.00;;;;;;5049058;28;20462;-75
2022/02/07 15:55:11;;;;;;;1.80;0.80;;;9.20;1.00;;;;;;5041916;28;20415;-75
2022/02/07 15:57:37;;;;;;;5.57;1.40;;;7.60;1.00;;;;;;5034813;28;20426;-73
2022/02/07 16:00:08;;;;;;;2.83;1.13;;;7.50;1.00;;;;;;5050405;28;20434;-73
2022/02/07 16:02:34;;;;;;;4.87;0.90;;;;;;;;;;5042670;28;20758;-72
2022/02/07 16:05:01;;;;;;;1.93;0.70;;;7.40;1.00;;;;;;5042993;28;20440;-72
2022/02/07 16:07:27;;;;;;;5.20;2.63;;;;;;;;;;5039946;28;20921;-73
2022/02/07 16:09:53;;;;;;;1.23;0.70;;;7.20;1.00;;;;;;5041078;28;20432;-73